sensor_id;sensor_type;location;lat;lon;timestamp;P1;durP1;ratioP1;P2;durP2;ratioP2
79790;SDS011;69278;52.220;5.172;2023-07-13T00:01:59;10.77;;;2.35;;
79790;SDS011;69278;52.220;5.172;2023-07-13T00:04:28;9.85;;;2.33;;
79790;SDS011;69278;52.220;5.172;2023-07-13T00:06:58;9.90;;;2.70;;
79790;SDS011;69278;52.220;5.172;2023-07-13T00:09:25;12.32;;;2.55;;
79790;SDS011;69278;52.220;5.172;2023-07-13T00:11:54;13.13;;;2.50;;
79790;SDS011;69278;52.220;5.172;2023-07-13T00:14:23;14.95;;;2.75;;
79790;SDS011;69278;52.220;5.172;2023-07-13T00:16:51;14.18;;;2.78;;
79790;SDS011;69278;52.220;5.172;2023-07-13T00:19:17;12.13;;;2.50;;
79790;SDS011;69278;52.220;5.172;2023-07-13T00:21:44;12.60;;;2.40;;
79790;SDS011;69278;52.220;5.172;2023-07-13T00:24:12;13.33;;;2.50;;
79790;SDS011;69278;52.220;5.172;2023-07-13T00:26:40;8.55;;;2.20;;
79790;SDS011;69278;52.220;5.172;2023-07-13T00:29:06;6.93;;;2.38;;
79790;SDS011;69278;52.220;5.172;2023-07-13T00:31:35;11.85;;;2.53;;
79790;SDS011;69278;52.220;5.172;2023-07-13T00:34:02;7.95;;;2.08;;
79790;SDS011;69278;52.220;5.172;2023-07-13T00:36:29;10.27;;;2.40;;
79790;SDS011;69278;52.220;5.172;2023-07-13T00:38:56;15.35;;;2.38;;
79790;SDS011;69278;52.220;5.172;2023-07-13T00:41:23;8.20;;;1.92;;
79790;SDS011;69278;52.220;5.172;2023-07-13T00:43:49;9.70;;;2.05;;
79790;SDS011;69278;52.220;5.172;2023-07-13T00:46:18;9.70;;;2.05;;
79790;SDS011;69278;52.220;5.172;2023-07-13T00:48:56;8.90;;;1.97;;
79790;SDS011;69278;52.220;5.172;2023-07-13T00:51:28;7.20;;;2.35;;
79790;SDS011;69278;52.220;5.172;2023-07-13T00:53:59;9.77;;;2.05;;
79790;SDS011;69278;52.220;5.172;2023-07-13T00:56:29;9.38;;;2.03;;
79790;SDS011;69278;52.220;5.172;2023-07-13T00:58:57;7.38;;;1.92;;
79790;SDS011;69278;52.220;5.172;2023-07-13T01:01:26;9.07;;;2.00;;
79790;SDS011;69278;52.220;5.172;2023-07-13T01:03:53;8.88;;;2.20;;
79790;SDS011;69278;52.220;5.172;2023-07-13T01:06:20;7.07;;;2.10;;
79790;SDS011;69278;52.220;5.172;2023-07-13T01:08:47;10.95;;;2.15;;
79790;SDS011;69278;52.220;5.172;2023-07-13T01:11:16;8.93;;;2.10;;
79790;SDS011;69278;52.220;5.172;2023-07-13T01:13:45;8.63;;;1.90;;
79790;SDS011;69278;52.220;5.172;2023-07-13T01:16:14;8.40;;;2.50;;
79790;SDS011;69278;52.220;5.172;2023-07-13T01:18:44;8.57;;;2.00;;
79790;SDS011;69278;52.220;5.172;2023-07-13T01:21:10;8.65;;;1.90;;
79790;SDS011;69278;52.220;5.172;2023-07-13T01:23:36;7.32;;;1.83;;
79790;SDS011;69278;52.220;5.172;2023-07-13T01:26:03;5.40;;;1.90;;
79790;SDS011;69278;52.220;5.172;2023-07-13T01:28:29;6.95;;;1.90;;
79790;SDS011;69278;52.220;5.172;2023-07-13T01:30:58;9.55;;;1.90;;
79790;SDS011;69278;52.220;5.172;2023-07-13T01:33:25;8.15;;;1.98;;
79790;SDS011;69278;52.220;5.172;2023-07-13T01:35:52;9.35;;;1.90;;
79790;SDS011;69278;52.220;5.172;2023-07-13T01:38:20;7.47;;;1.87;;
79790;SDS011;69278;52.220;5.172;2023-07-13T01:40:47;6.07;;;2.00;;
79790;SDS011;69278;52.220;5.172;2023-07-13T01:43:14;4.47;;;1.65;;
79790;SDS011;69278;52.220;5.172;2023-07-13T01:45:40;7.22;;;1.95;;
79790;SDS011;69278;52.220;5.172;2023-07-13T01:48:10;6.07;;;1.85;;
79790;SDS011;69278;52.220;5.172;2023-07-13T01:50:37;7.00;;;1.80;;
79790;SDS011;69278;52.220;5.172;2023-07-13T01:53:05;6.43;;;1.92;;
79790;SDS011;69278;52.220;5.172;2023-07-13T01:55:33;9.10;;;2.20;;
79790;SDS011;69278;52.220;5.172;2023-07-13T01:58:00;5.22;;;1.70;;
79790;SDS011;69278;52.220;5.172;2023-07-13T02:00:27;8.02;;;2.10;;
79790;SDS011;69278;52.220;5.172;2023-07-13T02:02:54;7.20;;;1.80;;
79790;SDS011;69278;52.220;5.172;2023-07-13T02:05:20;10.00;;;2.15;;
79790;SDS011;69278;52.220;5.172;2023-07-13T02:07:47;10.90;;;2.00;;
79790;SDS011;69278;52.220;5.172;2023-07-13T02:10:14;9.30;;;1.88;;
79790;SDS011;69278;52.220;5.172;2023-07-13T02:12:41;10.85;;;2.30;;
79790;SDS011;69278;52.220;5.172;2023-07-13T02:15:08;9.87;;;2.17;;
79790;SDS011;69278;52.220;5.172;2023-07-13T02:17:35;8.55;;;1.90;;
79790;SDS011;69278;52.220;5.172;2023-07-13T02:20:03;9.10;;;2.30;;
79790;SDS011;69278;52.220;5.172;2023-07-13T02:22:30;10.98;;;2.65;;
79790;SDS011;69278;52.220;5.172;2023-07-13T02:24:57;9.77;;;2.05;;
79790;SDS011;69278;52.220;5.172;2023-07-13T02:27:23;7.93;;;1.80;;
79790;SDS011;69278;52.220;5.172;2023-07-13T02:29:50;7.40;;;2.15;;
79790;SDS011;69278;52.220;5.172;2023-07-13T02:32:17;9.05;;;2.20;;
79790;SDS011;69278;52.220;5.172;2023-07-13T02:34:44;8.15;;;2.40;;
79790;SDS011;69278;52.220;5.172;2023-07-13T02:37:11;7.05;;;2.10;;
79790;SDS011;69278;52.220;5.172;2023-07-13T02:39:38;7.23;;;1.90;;
79790;SDS011;69278;52.220;5.172;2023-07-13T02:42:04;6.93;;;1.80;;
79790;SDS011;69278;52.220;5.172;2023-07-13T02:44:31;8.45;;;2.13;;
79790;SDS011;69278;52.220;5.172;2023-07-13T02:46:58;8.20;;;2.20;;
79790;SDS011;69278;52.220;5.172;2023-07-13T02:49:24;10.48;;;2.22;;
79790;SDS011;69278;52.220;5.172;2023-07-13T02:51:51;6.60;;;2.07;;
79790;SDS011;69278;52.220;5.172;2023-07-13T02:54:17;7.25;;;2.40;;
79790;SDS011;69278;52.220;5.172;2023-07-13T02:56:44;7.60;;;1.90;;
79790;SDS011;69278;52.220;5.172;2023-07-13T02:59:10;7.40;;;1.90;;
79790;SDS011;69278;52.220;5.172;2023-07-13T03:01:37;7.68;;;2.20;;
79790;SDS011;69278;52.220;5.172;2023-07-13T03:04:04;8.70;;;1.80;;
79790;SDS011;69278;52.220;5.172;2023-07-13T03:06:31;5.95;;;1.73;;
79790;SDS011;69278;52.220;5.172;2023-07-13T03:08:58;7.40;;;1.73;;
79790;SDS011;69278;52.220;5.172;2023-07-13T03:11:26;6.70;;;1.80;;
79790;SDS011;69278;52.220;5.172;2023-07-13T03:13:52;7.93;;;2.08;;
79790;SDS011;69278;52.220;5.172;2023-07-13T03:16:19;8.83;;;2.00;;
79790;SDS011;69278;52.220;5.172;2023-07-13T03:18:47;7.05;;;1.70;;
79790;SDS011;69278;52.220;5.172;2023-07-13T03:21:14;6.65;;;1.70;;
79790;SDS011;69278;52.220;5.172;2023-07-13T03:23:40;7.03;;;1.70;;
79790;SDS011;69278;52.220;5.172;2023-07-13T03:26:12;6.78;;;2.03;;
79790;SDS011;69278;52.220;5.172;2023-07-13T03:28:41;6.60;;;1.90;;
79790;SDS011;69278;52.220;5.172;2023-07-13T03:31:08;7.55;;;1.70;;
79790;SDS011;69278;52.220;5.172;2023-07-13T03:33:36;7.32;;;1.63;;
79790;SDS011;69278;52.220;5.172;2023-07-13T03:36:04;7.38;;;1.67;;
79790;SDS011;69278;52.220;5.172;2023-07-13T03:38:31;6.55;;;1.70;;
79790;SDS011;69278;52.220;5.172;2023-07-13T03:40:58;8.07;;;2.00;;
79790;SDS011;69278;52.220;5.172;2023-07-13T03:43:25;6.90;;;1.80;;
79790;SDS011;69278;52.220;5.172;2023-07-13T03:45:52;7.28;;;2.00;;
79790;SDS011;69278;52.220;5.172;2023-07-13T03:48:18;5.35;;;1.60;;
79790;SDS011;69278;52.220;5.172;2023-07-13T03:50:44;6.55;;;1.80;;
79790;SDS011;69278;52.220;5.172;2023-07-13T03:53:11;6.97;;;2.13;;
79790;SDS011;69278;52.220;5.172;2023-07-13T03:55:37;7.13;;;2.22;;
79790;SDS011;69278;52.220;5.172;2023-07-13T03:58:23;8.45;;;2.33;;
79790;SDS011;69278;52.220;5.172;2023-07-13T04:00:53;8.48;;;2.20;;
79790;SDS011;69278;52.220;5.172;2023-07-13T04:03:20;7.70;;;2.17;;
79790;SDS011;69278;52.220;5.172;2023-07-13T04:05:47;6.70;;;2.30;;
79790;SDS011;69278;52.220;5.172;2023-07-13T04:08:13;9.23;;;1.92;;
79790;SDS011;69278;52.220;5.172;2023-07-13T04:10:39;9.18;;;2.10;;
79790;SDS011;69278;52.220;5.172;2023-07-13T04:13:06;7.68;;;1.95;;
79790;SDS011;69278;52.220;5.172;2023-07-13T04:15:32;9.80;;;2.10;;
79790;SDS011;69278;52.220;5.172;2023-07-13T04:17:59;5.10;;;1.90;;
79790;SDS011;69278;52.220;5.172;2023-07-13T04:20:26;9.15;;;2.20;;
79790;SDS011;69278;52.220;5.172;2023-07-13T04:22:52;10.10;;;2.00;;
79790;SDS011;69278;52.220;5.172;2023-07-13T04:25:22;7.55;;;2.10;;
79790;SDS011;69278;52.220;5.172;2023-07-13T04:27:49;9.32;;;2.00;;
79790;SDS011;69278;52.220;5.172;2023-07-13T04:30:16;6.40;;;1.90;;
79790;SDS011;69278;52.220;5.172;2023-07-13T04:32:42;7.22;;;1.90;;
79790;SDS011;69278;52.220;5.172;2023-07-13T04:35:09;6.88;;;2.10;;
79790;SDS011;69278;52.220;5.172;2023-07-13T04:37:35;9.38;;;1.85;;
79790;SDS011;69278;52.220;5.172;2023-07-13T04:40:02;7.38;;;2.03;;
79790;SDS011;69278;52.220;5.172;2023-07-13T04:42:29;5.27;;;1.80;;
79790;SDS011;69278;52.220;5.172;2023-07-13T04:44:56;8.40;;;2.30;;
79790;SDS011;69278;52.220;5.172;2023-07-13T04:47:22;7.13;;;2.17;;
79790;SDS011;69278;52.220;5.172;2023-07-13T04:49:49;8.27;;;2.30;;
79790;SDS011;69278;52.220;5.172;2023-07-13T04:52:15;8.10;;;2.20;;
79790;SDS011;69278;52.220;5.172;2023-07-13T04:54:42;11.53;;;2.30;;
79790;SDS011;69278;52.220;5.172;2023-07-13T04:57:08;8.27;;;2.22;;
79790;SDS011;69278;52.220;5.172;2023-07-13T04:59:35;8.93;;;2.05;;
79790;SDS011;69278;52.220;5.172;2023-07-13T05:02:01;9.15;;;2.17;;
79790;SDS011;69278;52.220;5.172;2023-07-13T05:04:28;9.07;;;2.33;;
79790;SDS011;69278;52.220;5.172;2023-07-13T05:06:54;8.53;;;2.50;;
79790;SDS011;69278;52.220;5.172;2023-07-13T05:09:21;9.20;;;2.50;;
79790;SDS011;69278;52.220;5.172;2023-07-13T05:11:47;11.32;;;2.80;;
79790;SDS011;69278;52.220;5.172;2023-07-13T05:14:13;7.15;;;2.10;;
79790;SDS011;69278;52.220;5.172;2023-07-13T05:16:41;9.35;;;2.95;;
79790;SDS011;69278;52.220;5.172;2023-07-13T05:19:08;8.97;;;2.50;;
79790;SDS011;69278;52.220;5.172;2023-07-13T05:21:35;10.35;;;2.65;;
79790;SDS011;69278;52.220;5.172;2023-07-13T05:24:02;13.50;;;3.05;;
79790;SDS011;69278;52.220;5.172;2023-07-13T05:26:48;7.75;;;2.42;;
79790;SDS011;69278;52.220;5.172;2023-07-13T05:29:15;8.32;;;2.58;;
79790;SDS011;69278;52.220;5.172;2023-07-13T05:31:41;9.37;;;2.80;;
79790;SDS011;69278;52.220;5.172;2023-07-13T05:34:08;12.30;;;2.70;;
79790;SDS011;69278;52.220;5.172;2023-07-13T05:36:34;10.82;;;2.90;;
79790;SDS011;69278;52.220;5.172;2023-07-13T05:39:02;14.02;;;3.58;;
79790;SDS011;69278;52.220;5.172;2023-07-13T05:41:29;10.18;;;2.95;;
79790;SDS011;69278;52.220;5.172;2023-07-13T05:43:56;10.80;;;3.33;;
79790;SDS011;69278;52.220;5.172;2023-07-13T05:46:22;9.82;;;2.42;;
79790;SDS011;69278;52.220;5.172;2023-07-13T05:48:49;9.43;;;2.83;;
79790;SDS011;69278;52.220;5.172;2023-07-13T05:51:16;14.07;;;2.72;;
79790;SDS011;69278;52.220;5.172;2023-07-13T05:53:42;16.85;;;3.03;;
79790;SDS011;69278;52.220;5.172;2023-07-13T05:56:09;10.13;;;2.67;;
79790;SDS011;69278;52.220;5.172;2023-07-13T05:58:35;9.93;;;2.58;;
79790;SDS011;69278;52.220;5.172;2023-07-13T06:01:06;12.05;;;2.88;;
79790;SDS011;69278;52.220;5.172;2023-07-13T06:03:36;10.05;;;2.55;;
79790;SDS011;69278;52.220;5.172;2023-07-13T06:06:06;9.60;;;2.50;;
79790;SDS011;69278;52.220;5.172;2023-07-13T06:08:34;8.70;;;2.60;;
79790;SDS011;69278;52.220;5.172;2023-07-13T06:11:05;11.13;;;2.58;;
79790;SDS011;69278;52.220;5.172;2023-07-13T06:13:42;9.00;;;2.53;;
79790;SDS011;69278;52.220;5.172;2023-07-13T06:16:09;12.93;;;3.45;;
79790;SDS011;69278;52.220;5.172;2023-07-13T06:18:36;12.02;;;2.50;;
79790;SDS011;69278;52.220;5.172;2023-07-13T06:21:07;10.60;;;3.13;;
79790;SDS011;69278;52.220;5.172;2023-07-13T06:23:39;9.93;;;2.90;;
79790;SDS011;69278;52.220;5.172;2023-07-13T06:26:05;13.68;;;4.07;;
79790;SDS011;69278;52.220;5.172;2023-07-13T06:28:32;12.90;;;4.03;;
79790;SDS011;69278;52.220;5.172;2023-07-13T06:31:01;11.32;;;4.13;;
79790;SDS011;69278;52.220;5.172;2023-07-13T06:33:28;14.63;;;4.57;;
79790;SDS011;69278;52.220;5.172;2023-07-13T06:35:55;14.93;;;4.30;;
79790;SDS011;69278;52.220;5.172;2023-07-13T06:38:21;11.75;;;4.05;;
79790;SDS011;69278;52.220;5.172;2023-07-13T06:40:48;14.30;;;3.25;;
79790;SDS011;69278;52.220;5.172;2023-07-13T06:43:14;15.70;;;3.58;;
79790;SDS011;69278;52.220;5.172;2023-07-13T06:45:44;11.23;;;3.30;;
79790;SDS011;69278;52.220;5.172;2023-07-13T06:48:14;12.13;;;3.67;;
79790;SDS011;69278;52.220;5.172;2023-07-13T06:50:41;10.73;;;3.20;;
79790;SDS011;69278;52.220;5.172;2023-07-13T06:53:08;14.23;;;3.10;;
79790;SDS011;69278;52.220;5.172;2023-07-13T06:55:35;11.93;;;3.85;;
79790;SDS011;69278;52.220;5.172;2023-07-13T06:58:02;13.03;;;4.20;;
79790;SDS011;69278;52.220;5.172;2023-07-13T07:00:28;14.43;;;4.50;;
79790;SDS011;69278;52.220;5.172;2023-07-13T07:02:55;20.52;;;5.30;;
79790;SDS011;69278;52.220;5.172;2023-07-13T07:05:22;14.57;;;4.90;;
79790;SDS011;69278;52.220;5.172;2023-07-13T07:07:52;9.07;;;3.20;;
79790;SDS011;69278;52.220;5.172;2023-07-13T07:10:20;8.03;;;2.73;;
79790;SDS011;69278;52.220;5.172;2023-07-13T07:12:47;10.32;;;3.20;;
79790;SDS011;69278;52.220;5.172;2023-07-13T07:15:14;17.58;;;4.63;;
79790;SDS011;69278;52.220;5.172;2023-07-13T07:17:41;11.43;;;4.13;;
79790;SDS011;69278;52.220;5.172;2023-07-13T07:20:07;8.80;;;3.75;;
79790;SDS011;69278;52.220;5.172;2023-07-13T07:22:34;6.90;;;3.33;;
79790;SDS011;69278;52.220;5.172;2023-07-13T07:25:01;5.32;;;2.80;;
79790;SDS011;69278;52.220;5.172;2023-07-13T07:27:27;6.60;;;2.63;;
79790;SDS011;69278;52.220;5.172;2023-07-13T07:29:57;7.03;;;2.80;;
79790;SDS011;69278;52.220;5.172;2023-07-13T07:32:28;6.38;;;2.50;;
79790;SDS011;69278;52.220;5.172;2023-07-13T07:35:15;6.57;;;2.20;;
79790;SDS011;69278;52.220;5.172;2023-07-13T07:37:42;7.82;;;2.60;;
79790;SDS011;69278;52.220;5.172;2023-07-13T07:40:11;6.35;;;2.78;;
79790;SDS011;69278;52.220;5.172;2023-07-13T07:42:40;5.90;;;2.92;;
79790;SDS011;69278;52.220;5.172;2023-07-13T07:45:07;6.68;;;3.15;;
79790;SDS011;69278;52.220;5.172;2023-07-13T07:47:34;4.80;;;3.00;;
79790;SDS011;69278;52.220;5.172;2023-07-13T07:50:00;6.70;;;3.20;;
79790;SDS011;69278;52.220;5.172;2023-07-13T07:52:27;7.55;;;3.47;;
79790;SDS011;69278;52.220;5.172;2023-07-13T07:54:53;9.65;;;3.50;;
79790;SDS011;69278;52.220;5.172;2023-07-13T07:57:23;8.20;;;3.38;;
79790;SDS011;69278;52.220;5.172;2023-07-13T07:59:52;6.70;;;3.43;;
79790;SDS011;69278;52.220;5.172;2023-07-13T08:02:21;9.52;;;4.53;;
79790;SDS011;69278;52.220;5.172;2023-07-13T08:04:51;9.38;;;4.38;;
79790;SDS011;69278;52.220;5.172;2023-07-13T08:07:21;9.63;;;4.22;;
79790;SDS011;69278;52.220;5.172;2023-07-13T08:09:48;11.73;;;4.40;;
79790;SDS011;69278;52.220;5.172;2023-07-13T08:12:18;13.53;;;4.40;;
79790;SDS011;69278;52.220;5.172;2023-07-13T08:15:05;11.40;;;4.45;;
79790;SDS011;69278;52.220;5.172;2023-07-13T08:17:35;10.27;;;4.15;;
79790;SDS011;69278;52.220;5.172;2023-07-13T08:20:02;10.82;;;4.20;;
79790;SDS011;69278;52.220;5.172;2023-07-13T08:22:29;10.23;;;4.28;;
79790;SDS011;69278;52.220;5.172;2023-07-13T08:24:55;11.57;;;4.80;;
79790;SDS011;69278;52.220;5.172;2023-07-13T08:27:23;10.38;;;4.80;;
79790;SDS011;69278;52.220;5.172;2023-07-13T08:29:51;11.25;;;4.80;;
79790;SDS011;69278;52.220;5.172;2023-07-13T08:32:18;14.05;;;5.57;;
79790;SDS011;69278;52.220;5.172;2023-07-13T08:34:47;13.10;;;4.63;;
79790;SDS011;69278;52.220;5.172;2023-07-13T08:37:14;6.70;;;2.50;;
79790;SDS011;69278;52.220;5.172;2023-07-13T08:39:41;3.30;;;2.20;;
79790;SDS011;69278;52.220;5.172;2023-07-13T08:47:42;6.82;;;3.35;;
79790;SDS011;69278;52.220;5.172;2023-07-13T08:50:14;7.30;;;3.70;;
79790;SDS011;69278;52.220;5.172;2023-07-13T08:52:43;9.98;;;3.67;;
79790;SDS011;69278;52.220;5.172;2023-07-13T08:55:18;5.70;;;3.53;;
79790;SDS011;69278;52.220;5.172;2023-07-13T08:57:50;8.10;;;3.28;;
79790;SDS011;69278;52.220;5.172;2023-07-13T09:00:24;5.47;;;2.83;;
79790;SDS011;69278;52.220;5.172;2023-07-13T09:03:00;4.80;;;2.67;;
79790;SDS011;69278;52.220;5.172;2023-07-13T09:05:33;5.47;;;2.78;;
79790;SDS011;69278;52.220;5.172;2023-07-13T09:10:32;6.43;;;2.92;;
79790;SDS011;69278;52.220;5.172;2023-07-13T09:13:27;3.78;;;2.10;;
79790;SDS011;69278;52.220;5.172;2023-07-13T09:16:03;4.93;;;2.87;;
79790;SDS011;69278;52.220;5.172;2023-07-13T09:18:35;6.88;;;3.40;;
79790;SDS011;69278;52.220;5.172;2023-07-13T09:21:05;7.50;;;3.38;;
79790;SDS011;69278;52.220;5.172;2023-07-13T09:23:37;6.25;;;3.10;;
79790;SDS011;69278;52.220;5.172;2023-07-13T09:26:06;6.70;;;3.25;;
79790;SDS011;69278;52.220;5.172;2023-07-13T09:28:43;7.50;;;3.10;;
79790;SDS011;69278;52.220;5.172;2023-07-13T09:31:34;7.25;;;3.22;;
79790;SDS011;69278;52.220;5.172;2023-07-13T09:34:09;5.82;;;3.03;;
79790;SDS011;69278;52.220;5.172;2023-07-13T09:36:36;8.52;;;3.50;;
79790;SDS011;69278;52.220;5.172;2023-07-13T09:41:45;8.80;;;3.20;;
79790;SDS011;69278;52.220;5.172;2023-07-13T09:44:18;10.20;;;3.30;;
79790;SDS011;69278;52.220;5.172;2023-07-13T09:46:57;6.78;;;3.50;;
79790;SDS011;69278;52.220;5.172;2023-07-13T09:49:25;7.68;;;3.40;;
79790;SDS011;69278;52.220;5.172;2023-07-13T09:51:59;10.77;;;3.45;;
79790;SDS011;69278;52.220;5.172;2023-07-13T09:54:27;8.57;;;3.60;;
79790;SDS011;69278;52.220;5.172;2023-07-13T09:56:57;8.55;;;3.63;;
79790;SDS011;69278;52.220;5.172;2023-07-13T09:59:40;8.18;;;3.55;;
79790;SDS011;69278;52.220;5.172;2023-07-13T10:02:30;8.82;;;3.70;;
79790;SDS011;69278;52.220;5.172;2023-07-13T10:05:00;9.30;;;3.58;;
79790;SDS011;69278;52.220;5.172;2023-07-13T10:07:30;8.40;;;3.50;;
79790;SDS011;69278;52.220;5.172;2023-07-13T10:09:58;8.18;;;3.40;;
79790;SDS011;69278;52.220;5.172;2023-07-13T10:12:30;8.30;;;3.20;;
79790;SDS011;69278;52.220;5.172;2023-07-13T10:15:02;9.27;;;3.17;;
79790;SDS011;69278;52.220;5.172;2023-07-13T10:17:49;8.10;;;3.20;;
79790;SDS011;69278;52.220;5.172;2023-07-13T10:20:18;7.43;;;2.90;;
79790;SDS011;69278;52.220;5.172;2023-07-13T10:22:54;6.72;;;2.92;;
79790;SDS011;69278;52.220;5.172;2023-07-13T10:25:28;7.30;;;2.63;;
79790;SDS011;69278;52.220;5.172;2023-07-13T10:27:59;8.38;;;3.10;;
79790;SDS011;69278;52.220;5.172;2023-07-13T10:30:32;7.63;;;2.90;;
79790;SDS011;69278;52.220;5.172;2023-07-13T10:33:02;8.27;;;3.13;;
79790;SDS011;69278;52.220;5.172;2023-07-13T10:35:34;8.98;;;3.05;;
79790;SDS011;69278;52.220;5.172;2023-07-13T10:38:06;5.22;;;2.78;;
79790;SDS011;69278;52.220;5.172;2023-07-13T10:40:53;11.13;;;2.78;;
79790;SDS011;69278;52.220;5.172;2023-07-13T10:43:34;5.65;;;2.67;;
79790;SDS011;69278;52.220;5.172;2023-07-13T10:46:10;7.03;;;2.90;;
79790;SDS011;69278;52.220;5.172;2023-07-13T10:48:39;6.82;;;2.70;;
79790;SDS011;69278;52.220;5.172;2023-07-13T10:51:08;4.90;;;2.47;;
79790;SDS011;69278;52.220;5.172;2023-07-13T10:53:38;5.53;;;2.80;;
79790;SDS011;69278;52.220;5.172;2023-07-13T10:56:26;5.88;;;3.15;;
79790;SDS011;69278;52.220;5.172;2023-07-13T10:59:40;7.30;;;3.30;;
79790;SDS011;69278;52.220;5.172;2023-07-13T11:04:22;6.72;;;2.67;;
79790;SDS011;69278;52.220;5.172;2023-07-13T11:06:53;9.77;;;2.97;;
79790;SDS011;69278;52.220;5.172;2023-07-13T11:09:32;7.20;;;3.10;;
79790;SDS011;69278;52.220;5.172;2023-07-13T11:15:03;4.95;;;2.28;;
79790;SDS011;69278;52.220;5.172;2023-07-13T11:17:34;6.18;;;2.47;;
79790;SDS011;69278;52.220;5.172;2023-07-13T11:20:19;6.30;;;2.80;;
79790;SDS011;69278;52.220;5.172;2023-07-13T11:28:04;4.95;;;2.13;;
79790;SDS011;69278;52.220;5.172;2023-07-13T11:30:35;6.25;;;2.42;;
79790;SDS011;69278;52.220;5.172;2023-07-13T11:38:32;5.67;;;2.50;;
79790;SDS011;69278;52.220;5.172;2023-07-13T11:41:04;6.30;;;2.55;;
79790;SDS011;69278;52.220;5.172;2023-07-13T11:43:42;4.97;;;2.60;;
79790;SDS011;69278;52.220;5.172;2023-07-13T11:46:14;4.88;;;2.65;;
79790;SDS011;69278;52.220;5.172;2023-07-13T11:48:42;4.88;;;2.30;;
79790;SDS011;69278;52.220;5.172;2023-07-13T11:51:14;4.03;;;2.10;;
79790;SDS011;69278;52.220;5.172;2023-07-13T11:53:47;4.90;;;2.50;;
79790;SDS011;69278;52.220;5.172;2023-07-13T11:56:16;5.88;;;2.50;;
79790;SDS011;69278;52.220;5.172;2023-07-13T11:58:43;5.00;;;2.30;;
79790;SDS011;69278;52.220;5.172;2023-07-13T12:01:16;4.72;;;2.40;;
79790;SDS011;69278;52.220;5.172;2023-07-13T12:04:02;5.43;;;2.00;;
79790;SDS011;69278;52.220;5.172;2023-07-13T12:06:31;4.75;;;2.30;;
79790;SDS011;69278;52.220;5.172;2023-07-13T12:09:00;6.07;;;2.40;;
79790;SDS011;69278;52.220;5.172;2023-07-13T12:11:29;5.50;;;2.03;;
79790;SDS011;69278;52.220;5.172;2023-07-13T12:13:56;6.00;;;2.20;;
79790;SDS011;69278;52.220;5.172;2023-07-13T12:16:28;7.27;;;2.43;;
79790;SDS011;69278;52.220;5.172;2023-07-13T12:19:00;8.50;;;2.20;;
79790;SDS011;69278;52.220;5.172;2023-07-13T12:21:38;5.55;;;2.10;;
79790;SDS011;69278;52.220;5.172;2023-07-13T12:24:11;5.72;;;2.40;;
79790;SDS011;69278;52.220;5.172;2023-07-13T12:26:41;5.55;;;2.45;;
79790;SDS011;69278;52.220;5.172;2023-07-13T12:29:07;5.77;;;2.40;;
79790;SDS011;69278;52.220;5.172;2023-07-13T12:31:35;8.27;;;2.25;;
79790;SDS011;69278;52.220;5.172;2023-07-13T12:34:08;5.93;;;2.00;;
79790;SDS011;69278;52.220;5.172;2023-07-13T12:36:50;7.15;;;2.40;;
79790;SDS011;69278;52.220;5.172;2023-07-13T12:39:23;3.17;;;2.00;;
79790;SDS011;69278;52.220;5.172;2023-07-13T12:41:54;3.90;;;1.90;;
79790;SDS011;69278;52.220;5.172;2023-07-13T12:44:43;7.68;;;2.50;;
79790;SDS011;69278;52.220;5.172;2023-07-13T12:47:11;4.15;;;2.13;;
79790;SDS011;69278;52.220;5.172;2023-07-13T12:49:40;5.25;;;2.25;;
79790;SDS011;69278;52.220;5.172;2023-07-13T12:52:20;6.25;;;2.08;;
79790;SDS011;69278;52.220;5.172;2023-07-13T12:54:52;6.53;;;2.40;;
79790;SDS011;69278;52.220;5.172;2023-07-13T12:57:31;7.03;;;2.42;;
79790;SDS011;69278;52.220;5.172;2023-07-13T12:59:58;7.30;;;2.13;;
79790;SDS011;69278;52.220;5.172;2023-07-13T13:02:29;4.47;;;2.20;;
79790;SDS011;69278;52.220;5.172;2023-07-13T13:05:00;4.82;;;2.30;;
79790;SDS011;69278;52.220;5.172;2023-07-13T13:07:29;4.10;;;2.30;;
79790;SDS011;69278;52.220;5.172;2023-07-13T13:09:56;6.65;;;2.50;;
79790;SDS011;69278;52.220;5.172;2023-07-13T13:12:22;6.10;;;2.50;;
79790;SDS011;69278;52.220;5.172;2023-07-13T13:14:51;6.68;;;2.35;;
79790;SDS011;69278;52.220;5.172;2023-07-13T13:17:19;5.53;;;2.50;;
79790;SDS011;69278;52.220;5.172;2023-07-13T13:19:49;3.50;;;1.80;;
79790;SDS011;69278;52.220;5.172;2023-07-13T13:22:16;5.82;;;2.53;;
79790;SDS011;69278;52.220;5.172;2023-07-13T13:24:42;4.20;;;1.98;;
79790;SDS011;69278;52.220;5.172;2023-07-13T13:27:14;8.98;;;2.40;;
79790;SDS011;69278;52.220;5.172;2023-07-13T13:29:43;5.13;;;2.25;;
79790;SDS011;69278;52.220;5.172;2023-07-13T13:32:12;4.23;;;2.00;;
79790;SDS011;69278;52.220;5.172;2023-07-13T13:34:39;3.83;;;2.10;;
79790;SDS011;69278;52.220;5.172;2023-07-13T13:37:24;5.00;;;2.30;;
79790;SDS011;69278;52.220;5.172;2023-07-13T13:39:52;6.78;;;2.55;;
79790;SDS011;69278;52.220;5.172;2023-07-13T13:42:33;4.75;;;2.08;;
79790;SDS011;69278;52.220;5.172;2023-07-13T13:45:00;5.10;;;2.40;;
79790;SDS011;69278;52.220;5.172;2023-07-13T13:47:30;5.65;;;2.50;;
79790;SDS011;69278;52.220;5.172;2023-07-13T13:49:59;4.88;;;2.22;;
79790;SDS011;69278;52.220;5.172;2023-07-13T13:52:26;4.88;;;2.00;;
79790;SDS011;69278;52.220;5.172;2023-07-13T13:54:53;5.55;;;2.10;;
79790;SDS011;69278;52.220;5.172;2023-07-13T13:57:23;3.53;;;2.13;;
79790;SDS011;69278;52.220;5.172;2023-07-13T13:59:50;5.63;;;2.40;;
79790;SDS011;69278;52.220;5.172;2023-07-13T14:02:21;5.65;;;2.13;;
79790;SDS011;69278;52.220;5.172;2023-07-13T14:04:59;5.85;;;2.25;;
79790;SDS011;69278;52.220;5.172;2023-07-13T14:07:28;4.57;;;1.90;;
79790;SDS011;69278;52.220;5.172;2023-07-13T14:09:57;3.80;;;2.03;;
79790;SDS011;69278;52.220;5.172;2023-07-13T14:12:25;5.38;;;2.22;;
79790;SDS011;69278;52.220;5.172;2023-07-13T14:14:55;4.55;;;2.20;;
79790;SDS011;69278;52.220;5.172;2023-07-13T14:17:25;7.55;;;2.05;;
79790;SDS011;69278;52.220;5.172;2023-07-13T14:19:54;2.90;;;1.50;;
79790;SDS011;69278;52.220;5.172;2023-07-13T14:22:24;3.80;;;2.00;;
79790;SDS011;69278;52.220;5.172;2023-07-13T14:24:54;5.03;;;2.03;;
79790;SDS011;69278;52.220;5.172;2023-07-13T14:27:23;3.63;;;1.88;;
79790;SDS011;69278;52.220;5.172;2023-07-13T14:29:51;6.03;;;2.10;;
79790;SDS011;69278;52.220;5.172;2023-07-13T14:32:17;2.92;;;1.60;;
79790;SDS011;69278;52.220;5.172;2023-07-13T14:34:44;4.90;;;2.10;;
79790;SDS011;69278;52.220;5.172;2023-07-13T14:37:14;5.75;;;2.10;;
79790;SDS011;69278;52.220;5.172;2023-07-13T14:39:43;2.92;;;1.60;;
79790;SDS011;69278;52.220;5.172;2023-07-13T14:42:11;4.10;;;1.88;;
79790;SDS011;69278;52.220;5.172;2023-07-13T14:44:38;4.22;;;2.10;;
79790;SDS011;69278;52.220;5.172;2023-07-13T14:47:06;4.33;;;2.23;;
79790;SDS011;69278;52.220;5.172;2023-07-13T14:49:37;3.33;;;1.90;;
79790;SDS011;69278;52.220;5.172;2023-07-13T14:52:13;4.47;;;2.03;;
79790;SDS011;69278;52.220;5.172;2023-07-13T14:54:42;5.53;;;1.80;;
79790;SDS011;69278;52.220;5.172;2023-07-13T14:57:13;4.80;;;2.03;;
79790;SDS011;69278;52.220;5.172;2023-07-13T14:59:42;3.37;;;1.80;;
79790;SDS011;69278;52.220;5.172;2023-07-13T15:02:16;4.57;;;2.00;;
79790;SDS011;69278;52.220;5.172;2023-07-13T15:04:50;4.47;;;1.90;;
79790;SDS011;69278;52.220;5.172;2023-07-13T15:07:17;5.03;;;2.10;;
79790;SDS011;69278;52.220;5.172;2023-07-13T15:09:45;3.67;;;1.85;;
79790;SDS011;69278;52.220;5.172;2023-07-13T15:12:11;4.83;;;1.87;;
79790;SDS011;69278;52.220;5.172;2023-07-13T15:14:38;2.83;;;1.77;;
79790;SDS011;69278;52.220;5.172;2023-07-13T15:17:04;3.50;;;1.75;;
79790;SDS011;69278;52.220;5.172;2023-07-13T15:19:50;3.22;;;1.60;;
79790;SDS011;69278;52.220;5.172;2023-07-13T15:22:17;2.95;;;1.48;;
79790;SDS011;69278;52.220;5.172;2023-07-13T15:24:43;3.00;;;1.37;;
79790;SDS011;69278;52.220;5.172;2023-07-13T15:27:13;3.38;;;1.60;;